sensor_id;sensor_type;location;lat;lon;timestamp;P1;durP1;ratioP1;P2;durP2;ratioP2
83663;SDS011;73634;47.068;15.426;2023-11-19T00:01:58;8.43;;;3.50;;
83663;SDS011;73634;47.068;15.426;2023-11-19T00:04:24;8.40;;;3.42;;
83663;SDS011;73634;47.068;15.426;2023-11-19T00:06:49;9.23;;;2.83;;
83663;SDS011;73634;47.068;15.426;2023-11-19T00:09:15;7.53;;;3.03;;
83663;SDS011;73634;47.068;15.426;2023-11-19T00:11:43;5.82;;;2.25;;
83663;SDS011;73634;47.068;15.426;2023-11-19T00:14:08;7.07;;;2.45;;
83663;SDS011;73634;47.068;15.426;2023-11-19T00:16:34;6.05;;;2.88;;
83663;SDS011;73634;47.068;15.426;2023-11-19T00:21:58;8.23;;;2.85;;
83663;SDS011;73634;47.068;15.426;2023-11-19T00:24:27;9.95;;;3.75;;
83663;SDS011;73634;47.068;15.426;2023-11-19T00:26:53;9.52;;;3.60;;
83663;SDS011;73634;47.068;15.426;2023-11-19T00:29:18;6.88;;;2.50;;
83663;SDS011;73634;47.068;15.426;2023-11-19T00:31:45;7.18;;;3.25;;
83663;SDS011;73634;47.068;15.426;2023-11-19T00:34:10;6.05;;;2.78;;
83663;SDS011;73634;47.068;15.426;2023-11-19T00:36:36;7.00;;;2.75;;
83663;SDS011;73634;47.068;15.426;2023-11-19T00:39:01;5.38;;;2.13;;
83663;SDS011;73634;47.068;15.426;2023-11-19T00:41:26;6.13;;;2.60;;
83663;SDS011;73634;47.068;15.426;2023-11-19T00:47:10;5.43;;;2.35;;
83663;SDS011;73634;47.068;15.426;2023-11-19T00:49:35;6.97;;;3.45;;
83663;SDS011;73634;47.068;15.426;2023-11-19T00:52:00;7.68;;;3.03;;
83663;SDS011;73634;47.068;15.426;2023-11-19T00:54:27;6.38;;;2.90;;
83663;SDS011;73634;47.068;15.426;2023-11-19T00:56:52;5.45;;;2.38;;
83663;SDS011;73634;47.068;15.426;2023-11-19T00:59:18;6.90;;;2.90;;
83663;SDS011;73634;47.068;15.426;2023-11-19T01:01:44;7.53;;;2.67;;
83663;SDS011;73634;47.068;15.426;2023-11-19T01:04:09;5.68;;;2.50;;
83663;SDS011;73634;47.068;15.426;2023-11-19T01:06:35;7.60;;;3.05;;
83663;SDS011;73634;47.068;15.426;2023-11-19T01:09:00;7.53;;;2.70;;
83663;SDS011;73634;47.068;15.426;2023-11-19T01:13:21;6.63;;;2.53;;
83663;SDS011;73634;47.068;15.426;2023-11-19T01:15:47;7.10;;;2.70;;
83663;SDS011;73634;47.068;15.426;2023-11-19T01:18:12;6.00;;;2.60;;
83663;SDS011;73634;47.068;15.426;2023-11-19T01:20:38;10.13;;;3.13;;
83663;SDS011;73634;47.068;15.426;2023-11-19T01:23:04;7.03;;;2.78;;
83663;SDS011;73634;47.068;15.426;2023-11-19T01:25:30;5.68;;;2.40;;
83663;SDS011;73634;47.068;15.426;2023-11-19T01:27:55;6.35;;;2.70;;
83663;SDS011;73634;47.068;15.426;2023-11-19T01:30:23;8.23;;;2.78;;
83663;SDS011;73634;47.068;15.426;2023-11-19T01:32:49;8.20;;;2.90;;
83663;SDS011;73634;47.068;15.426;2023-11-19T01:38:47;5.68;;;2.40;;
83663;SDS011;73634;47.068;15.426;2023-11-19T01:41:12;7.82;;;3.00;;
83663;SDS011;73634;47.068;15.426;2023-11-19T01:43:38;5.93;;;2.80;;
83663;SDS011;73634;47.068;15.426;2023-11-19T01:46:07;6.75;;;2.75;;
83663;SDS011;73634;47.068;15.426;2023-11-19T01:48:36;6.43;;;2.65;;
83663;SDS011;73634;47.068;15.426;2023-11-19T01:51:06;6.40;;;2.75;;
83663;SDS011;73634;47.068;15.426;2023-11-19T01:53:32;5.80;;;2.70;;
83663;SDS011;73634;47.068;15.426;2023-11-19T01:55:59;5.38;;;2.17;;
83663;SDS011;73634;47.068;15.426;2023-11-19T01:58:26;5.32;;;2.35;;
83663;SDS011;73634;47.068;15.426;2023-11-19T02:00:51;9.68;;;3.35;;
83663;SDS011;73634;47.068;15.426;2023-11-19T02:05:44;5.70;;;1.80;;
83663;SDS011;73634;47.068;15.426;2023-11-19T02:08:13;6.95;;;2.30;;
83663;SDS011;73634;47.068;15.426;2023-11-19T02:10:39;6.25;;;2.30;;
83663;SDS011;73634;47.068;15.426;2023-11-19T02:13:04;7.28;;;2.65;;
83663;SDS011;73634;47.068;15.426;2023-11-19T02:15:31;5.50;;;2.63;;
83663;SDS011;73634;47.068;15.426;2023-11-19T02:17:57;6.63;;;2.70;;
83663;SDS011;73634;47.068;15.426;2023-11-19T02:20:41;5.90;;;2.28;;
83663;SDS011;73634;47.068;15.426;2023-11-19T02:23:07;5.80;;;2.03;;
83663;SDS011;73634;47.068;15.426;2023-11-19T02:25:32;5.20;;;1.92;;
83663;SDS011;73634;47.068;15.426;2023-11-19T02:27:59;6.55;;;2.95;;
83663;SDS011;73634;47.068;15.426;2023-11-19T02:33:02;6.30;;;2.47;;
83663;SDS011;73634;47.068;15.426;2023-11-19T02:35:30;8.35;;;2.78;;
83663;SDS011;73634;47.068;15.426;2023-11-19T02:37:57;6.38;;;2.40;;
83663;SDS011;73634;47.068;15.426;2023-11-19T02:40:28;11.27;;;4.65;;
83663;SDS011;73634;47.068;15.426;2023-11-19T02:42:54;11.38;;;3.88;;
83663;SDS011;73634;47.068;15.426;2023-11-19T02:45:21;7.63;;;3.83;;
83663;SDS011;73634;47.068;15.426;2023-11-19T02:47:48;7.10;;;3.03;;
83663;SDS011;73634;47.068;15.426;2023-11-19T02:50:13;8.63;;;3.33;;
83663;SDS011;73634;47.068;15.426;2023-11-19T02:52:41;5.10;;;2.22;;
83663;SDS011;73634;47.068;15.426;2023-11-19T02:55:08;7.00;;;2.95;;
83663;SDS011;73634;47.068;15.426;2023-11-19T03:00:21;6.85;;;2.45;;
83663;SDS011;73634;47.068;15.426;2023-11-19T03:03:00;5.15;;;2.45;;
83663;SDS011;73634;47.068;15.426;2023-11-19T03:05:34;7.00;;;2.67;;
83663;SDS011;73634;47.068;15.426;2023-11-19T03:08:00;9.45;;;2.88;;
83663;SDS011;73634;47.068;15.426;2023-11-19T03:10:25;7.07;;;2.60;;
83663;SDS011;73634;47.068;15.426;2023-11-19T03:12:50;9.57;;;3.42;;
83663;SDS011;73634;47.068;15.426;2023-11-19T03:15:16;7.97;;;3.03;;
83663;SDS011;73634;47.068;15.426;2023-11-19T03:17:46;8.07;;;2.72;;
83663;SDS011;73634;47.068;15.426;2023-11-19T03:20:11;6.38;;;2.40;;
83663;SDS011;73634;47.068;15.426;2023-11-19T03:22:40;7.07;;;2.40;;
83663;SDS011;73634;47.068;15.426;2023-11-19T03:26:50;7.82;;;2.65;;
83663;SDS011;73634;47.068;15.426;2023-11-19T03:29:15;6.65;;;2.78;;
83663;SDS011;73634;47.068;15.426;2023-11-19T03:31:43;7.75;;;2.45;;
83663;SDS011;73634;47.068;15.426;2023-11-19T03:34:12;7.07;;;3.25;;
83663;SDS011;73634;47.068;15.426;2023-11-19T03:36:38;7.00;;;2.88;;
83663;SDS011;73634;47.068;15.426;2023-11-19T03:39:03;7.18;;;2.70;;
83663;SDS011;73634;47.068;15.426;2023-11-19T03:41:28;7.57;;;2.92;;
83663;SDS011;73634;47.068;15.426;2023-11-19T03:43:54;7.65;;;2.65;;
83663;SDS011;73634;47.068;15.426;2023-11-19T03:46:20;6.93;;;2.60;;
83663;SDS011;73634;47.068;15.426;2023-11-19T03:48:49;7.38;;;2.88;;
83663;SDS011;73634;47.068;15.426;2023-11-19T03:53:52;7.25;;;2.58;;
83663;SDS011;73634;47.068;15.426;2023-11-19T03:56:17;6.22;;;2.90;;
83663;SDS011;73634;47.068;15.426;2023-11-19T03:58:43;5.88;;;2.47;;
83663;SDS011;73634;47.068;15.426;2023-11-19T04:01:11;7.32;;;2.70;;
83663;SDS011;73634;47.068;15.426;2023-11-19T04:03:40;7.35;;;2.47;;
83663;SDS011;73634;47.068;15.426;2023-11-19T04:06:05;7.38;;;2.58;;
83663;SDS011;73634;47.068;15.426;2023-11-19T04:08:31;7.10;;;2.80;;
83663;SDS011;73634;47.068;15.426;2023-11-19T04:10:56;6.65;;;2.47;;
83663;SDS011;73634;47.068;15.426;2023-11-19T04:13:23;6.75;;;2.63;;
83663;SDS011;73634;47.068;15.426;2023-11-19T04:18:45;6.72;;;2.33;;
83663;SDS011;73634;47.068;15.426;2023-11-19T04:21:11;6.60;;;2.70;;
83663;SDS011;73634;47.068;15.426;2023-11-19T04:23:36;7.20;;;3.35;;
83663;SDS011;73634;47.068;15.426;2023-11-19T04:26:02;10.93;;;2.90;;
83663;SDS011;73634;47.068;15.426;2023-11-19T04:28:29;6.07;;;2.75;;
83663;SDS011;73634;47.068;15.426;2023-11-19T04:30:55;6.18;;;2.60;;
83663;SDS011;73634;47.068;15.426;2023-11-19T04:33:20;6.03;;;2.30;;
83663;SDS011;73634;47.068;15.426;2023-11-19T04:35:45;5.97;;;2.70;;
83663;SDS011;73634;47.068;15.426;2023-11-19T04:38:11;5.13;;;2.65;;
83663;SDS011;73634;47.068;15.426;2023-11-19T04:43:26;6.82;;;2.50;;
83663;SDS011;73634;47.068;15.426;2023-11-19T04:45:52;6.28;;;2.50;;
83663;SDS011;73634;47.068;15.426;2023-11-19T04:48:17;6.88;;;2.72;;
83663;SDS011;73634;47.068;15.426;2023-11-19T04:50:42;5.07;;;2.13;;
83663;SDS011;73634;47.068;15.426;2023-11-19T04:53:08;6.43;;;2.30;;
83663;SDS011;73634;47.068;15.426;2023-11-19T04:55:33;6.63;;;2.70;;
83663;SDS011;73634;47.068;15.426;2023-11-19T04:57:58;6.60;;;2.53;;
83663;SDS011;73634;47.068;15.426;2023-11-19T05:00:24;8.00;;;2.70;;
83663;SDS011;73634;47.068;15.426;2023-11-19T05:02:50;6.72;;;2.35;;
83663;SDS011;73634;47.068;15.426;2023-11-19T05:07:52;7.47;;;4.10;;
83663;SDS011;73634;47.068;15.426;2023-11-19T05:10:17;8.30;;;3.20;;
83663;SDS011;73634;47.068;15.426;2023-11-19T05:12:43;7.68;;;2.72;;
83663;SDS011;73634;47.068;15.426;2023-11-19T05:15:08;6.10;;;2.40;;
83663;SDS011;73634;47.068;15.426;2023-11-19T05:17:34;6.03;;;2.55;;
83663;SDS011;73634;47.068;15.426;2023-11-19T05:19:59;5.70;;;2.38;;
83663;SDS011;73634;47.068;15.426;2023-11-19T05:22:25;4.60;;;2.10;;
83663;SDS011;73634;47.068;15.426;2023-11-19T05:24:51;5.88;;;2.60;;
83663;SDS011;73634;47.068;15.426;2023-11-19T05:27:17;7.63;;;2.40;;
83663;SDS011;73634;47.068;15.426;2023-11-19T05:29:42;8.18;;;2.83;;
83663;SDS011;73634;47.068;15.426;2023-11-19T05:34:46;8.80;;;3.10;;
83663;SDS011;73634;47.068;15.426;2023-11-19T05:37:12;7.38;;;2.50;;
83663;SDS011;73634;47.068;15.426;2023-11-19T05:39:37;6.13;;;2.42;;
83663;SDS011;73634;47.068;15.426;2023-11-19T05:42:02;6.00;;;2.50;;
83663;SDS011;73634;47.068;15.426;2023-11-19T05:44:28;6.60;;;2.28;;
83663;SDS011;73634;47.068;15.426;2023-11-19T05:46:54;5.30;;;2.15;;
83663;SDS011;73634;47.068;15.426;2023-11-19T05:49:19;6.25;;;2.42;;
83663;SDS011;73634;47.068;15.426;2023-11-19T05:51:45;5.93;;;2.83;;
83663;SDS011;73634;47.068;15.426;2023-11-19T05:54:11;7.75;;;2.97;;
83663;SDS011;73634;47.068;15.426;2023-11-19T05:58:43;7.32;;;2.55;;
83663;SDS011;73634;47.068;15.426;2023-11-19T06:01:09;5.65;;;2.22;;
83663;SDS011;73634;47.068;15.426;2023-11-19T06:03:35;5.63;;;2.13;;
83663;SDS011;73634;47.068;15.426;2023-11-19T06:06:01;6.18;;;2.40;;
83663;SDS011;73634;47.068;15.426;2023-11-19T06:08:27;6.30;;;2.70;;
83663;SDS011;73634;47.068;15.426;2023-11-19T06:10:52;6.53;;;2.33;;
83663;SDS011;73634;47.068;15.426;2023-11-19T06:13:17;6.05;;;2.10;;
83663;SDS011;73634;47.068;15.426;2023-11-19T06:15:43;5.82;;;2.47;;
83663;SDS011;73634;47.068;15.426;2023-11-19T06:18:08;5.25;;;2.10;;
83663;SDS011;73634;47.068;15.426;2023-11-19T06:22:53;6.47;;;2.45;;
83663;SDS011;73634;47.068;15.426;2023-11-19T06:25:18;6.03;;;2.90;;
83663;SDS011;73634;47.068;15.426;2023-11-19T06:27:44;7.30;;;3.00;;
83663;SDS011;73634;47.068;15.426;2023-11-19T06:30:10;6.85;;;2.67;;
83663;SDS011;73634;47.068;15.426;2023-11-19T06:32:36;7.80;;;3.17;;
83663;SDS011;73634;47.068;15.426;2023-11-19T06:35:02;7.30;;;2.70;;
83663;SDS011;73634;47.068;15.426;2023-11-19T06:37:29;7.63;;;2.88;;
83663;SDS011;73634;47.068;15.426;2023-11-19T06:39:55;9.60;;;3.58;;
83663;SDS011;73634;47.068;15.426;2023-11-19T06:42:20;9.10;;;3.67;;
83663;SDS011;73634;47.068;15.426;2023-11-19T06:47:49;8.00;;;3.47;;
83663;SDS011;73634;47.068;15.426;2023-11-19T06:50:15;6.88;;;3.17;;
83663;SDS011;73634;47.068;15.426;2023-11-19T06:52:40;8.27;;;3.35;;
83663;SDS011;73634;47.068;15.426;2023-11-19T06:55:06;7.85;;;3.05;;
83663;SDS011;73634;47.068;15.426;2023-11-19T06:57:32;6.00;;;2.63;;
83663;SDS011;73634;47.068;15.426;2023-11-19T06:59:58;9.25;;;3.50;;
83663;SDS011;73634;47.068;15.426;2023-11-19T07:02:23;8.52;;;3.15;;
83663;SDS011;73634;47.068;15.426;2023-11-19T07:04:49;8.25;;;3.20;;
83663;SDS011;73634;47.068;15.426;2023-11-19T07:07:15;7.60;;;2.70;;
83663;SDS011;73634;47.068;15.426;2023-11-19T07:09:40;9.77;;;3.08;;
83663;SDS011;73634;47.068;15.426;2023-11-19T07:14:46;7.20;;;3.08;;
83663;SDS011;73634;47.068;15.426;2023-11-19T07:17:11;6.80;;;2.83;;
83663;SDS011;73634;47.068;15.426;2023-11-19T07:19:37;7.43;;;3.03;;
83663;SDS011;73634;47.068;15.426;2023-11-19T07:22:03;7.05;;;3.10;;
83663;SDS011;73634;47.068;15.426;2023-11-19T07:24:29;9.18;;;3.22;;
83663;SDS011;73634;47.068;15.426;2023-11-19T07:26:54;10.52;;;3.55;;
83663;SDS011;73634;47.068;15.426;2023-11-19T07:29:20;8.00;;;2.92;;
83663;SDS011;73634;47.068;15.426;2023-11-19T07:31:48;9.45;;;3.25;;
83663;SDS011;73634;47.068;15.426;2023-11-19T07:34:14;4.80;;;2.45;;
83663;SDS011;73634;47.068;15.426;2023-11-19T07:36:39;7.45;;;2.83;;
83663;SDS011;73634;47.068;15.426;2023-11-19T07:41:27;6.28;;;2.58;;
83663;SDS011;73634;47.068;15.426;2023-11-19T07:43:52;6.45;;;3.33;;
83663;SDS011;73634;47.068;15.426;2023-11-19T07:46:18;7.97;;;3.38;;
83663;SDS011;73634;47.068;15.426;2023-11-19T07:48:46;6.95;;;3.20;;
83663;SDS011;73634;47.068;15.426;2023-11-19T07:51:12;6.30;;;2.65;;
83663;SDS011;73634;47.068;15.426;2023-11-19T07:53:38;5.78;;;2.78;;
83663;SDS011;73634;47.068;15.426;2023-11-19T07:56:05;6.80;;;3.17;;
83663;SDS011;73634;47.068;15.426;2023-11-19T07:58:31;8.23;;;4.00;;
83663;SDS011;73634;47.068;15.426;2023-11-19T08:00:57;8.45;;;3.53;;
83663;SDS011;73634;47.068;15.426;2023-11-19T08:06:23;8.10;;;4.57;;
83663;SDS011;73634;47.068;15.426;2023-11-19T08:08:49;10.15;;;4.20;;
83663;SDS011;73634;47.068;15.426;2023-11-19T08:11:14;9.32;;;3.90;;
83663;SDS011;73634;47.068;15.426;2023-11-19T08:13:40;7.97;;;4.03;;
83663;SDS011;73634;47.068;15.426;2023-11-19T08:16:05;8.30;;;4.63;;
83663;SDS011;73634;47.068;15.426;2023-11-19T08:18:31;8.55;;;4.10;;
83663;SDS011;73634;47.068;15.426;2023-11-19T08:20:57;8.02;;;4.10;;
83663;SDS011;73634;47.068;15.426;2023-11-19T08:23:24;8.70;;;4.22;;
83663;SDS011;73634;47.068;15.426;2023-11-19T08:25:50;8.95;;;4.18;;
83663;SDS011;73634;47.068;15.426;2023-11-19T08:29:34;10.45;;;4.25;;
83663;SDS011;73634;47.068;15.426;2023-11-19T08:32:00;9.73;;;4.10;;
83663;SDS011;73634;47.068;15.426;2023-11-19T08:34:27;8.68;;;4.25;;
83663;SDS011;73634;47.068;15.426;2023-11-19T08:36:52;6.18;;;3.10;;
83663;SDS011;73634;47.068;15.426;2023-11-19T08:39:21;7.53;;;3.75;;
83663;SDS011;73634;47.068;15.426;2023-11-19T08:41:47;6.43;;;3.42;;
83663;SDS011;73634;47.068;15.426;2023-11-19T08:44:13;7.63;;;4.15;;
83663;SDS011;73634;47.068;15.426;2023-11-19T08:46:38;7.18;;;3.70;;
83663;SDS011;73634;47.068;15.426;2023-11-19T08:49:04;7.60;;;4.38;;
83663;SDS011;73634;47.068;15.426;2023-11-19T08:53:44;7.72;;;4.40;;
83663;SDS011;73634;47.068;15.426;2023-11-19T08:56:10;6.85;;;4.35;;
83663;SDS011;73634;47.068;15.426;2023-11-19T08:58:35;6.75;;;4.18;;
83663;SDS011;73634;47.068;15.426;2023-11-19T09:01:00;8.13;;;4.65;;
83663;SDS011;73634;47.068;15.426;2023-11-19T09:03:26;7.78;;;4.88;;
83663;SDS011;73634;47.068;15.426;2023-11-19T09:05:52;8.88;;;5.07;;
83663;SDS011;73634;47.068;15.426;2023-11-19T09:08:18;7.53;;;4.85;;
83663;SDS011;73634;47.068;15.426;2023-11-19T09:10:43;8.05;;;4.72;;
83663;SDS011;73634;47.068;15.426;2023-11-19T09:15:56;7.25;;;4.00;;
83663;SDS011;73634;47.068;15.426;2023-11-19T09:18:28;7.15;;;3.97;;
83663;SDS011;73634;47.068;15.426;2023-11-19T09:20:53;7.32;;;4.40;;
83663;SDS011;73634;47.068;15.426;2023-11-19T09:23:19;7.65;;;4.18;;
83663;SDS011;73634;47.068;15.426;2023-11-19T09:25:45;6.47;;;3.92;;
83663;SDS011;73634;47.068;15.426;2023-11-19T09:28:10;7.45;;;4.00;;
83663;SDS011;73634;47.068;15.426;2023-11-19T09:30:35;6.38;;;3.70;;
83663;SDS011;73634;47.068;15.426;2023-11-19T09:33:01;8.63;;;5.25;;
83663;SDS011;73634;47.068;15.426;2023-11-19T09:35:27;8.35;;;4.32;;
83663;SDS011;73634;47.068;15.426;2023-11-19T09:40:51;9.73;;;5.18;;
83663;SDS011;73634;47.068;15.426;2023-11-19T09:43:17;7.55;;;4.45;;
83663;SDS011;73634;47.068;15.426;2023-11-19T09:45:49;8.60;;;5.20;;
83663;SDS011;73634;47.068;15.426;2023-11-19T09:48:18;6.72;;;4.18;;
83663;SDS011;73634;47.068;15.426;2023-11-19T09:50:48;11.20;;;5.82;;
83663;SDS011;73634;47.068;15.426;2023-11-19T09:53:14;7.50;;;4.18;;
83663;SDS011;73634;47.068;15.426;2023-11-19T09:55:43;7.55;;;4.18;;
83663;SDS011;73634;47.068;15.426;2023-11-19T09:58:08;5.72;;;3.92;;
83663;SDS011;73634;47.068;15.426;2023-11-19T10:00:36;7.45;;;4.43;;
83663;SDS011;73634;47.068;15.426;2023-11-19T10:05:23;8.15;;;4.82;;
83663;SDS011;73634;47.068;15.426;2023-11-19T10:07:49;7.45;;;4.15;;
83663;SDS011;73634;47.068;15.426;2023-11-19T10:10:15;6.60;;;3.38;;
83663;SDS011;73634;47.068;15.426;2023-11-19T10:12:44;6.70;;;3.28;;
83663;SDS011;73634;47.068;15.426;2023-11-19T10:15:19;9.10;;;4.35;;
83663;SDS011;73634;47.068;15.426;2023-11-19T10:17:46;5.65;;;3.20;;
83663;SDS011;73634;47.068;15.426;2023-11-19T10:20:11;6.95;;;3.15;;
83663;SDS011;73634;47.068;15.426;2023-11-19T10:22:37;7.00;;;3.03;;
83663;SDS011;73634;47.068;15.426;2023-11-19T10:27:07;5.53;;;2.63;;
83663;SDS011;73634;47.068;15.426;2023-11-19T10:29:35;5.88;;;3.67;;
83663;SDS011;73634;47.068;15.426;2023-11-19T10:32:04;6.10;;;3.15;;
83663;SDS011;73634;47.068;15.426;2023-11-19T10:34:30;7.03;;;3.85;;
83663;SDS011;73634;47.068;15.426;2023-11-19T10:36:55;5.57;;;3.17;;
83663;SDS011;73634;47.068;15.426;2023-11-19T10:39:21;5.82;;;4.03;;
83663;SDS011;73634;47.068;15.426;2023-11-19T10:41:46;7.68;;;4.47;;
83663;SDS011;73634;47.068;15.426;2023-11-19T10:44:12;8.68;;;5.72;;
83663;SDS011;73634;47.068;15.426;2023-11-19T10:46:38;5.80;;;3.72;;
83663;SDS011;73634;47.068;15.426;2023-11-19T10:49:04;6.32;;;4.40;;
83663;SDS011;73634;47.068;15.426;2023-11-19T10:53:18;6.75;;;4.78;;
83663;SDS011;73634;47.068;15.426;2023-11-19T10:55:46;15.75;;;9.68;;
83663;SDS011;73634;47.068;15.426;2023-11-19T10:58:13;6.47;;;4.47;;
83663;SDS011;73634;47.068;15.426;2023-11-19T11:03:17;6.95;;;4.75;;
83663;SDS011;73634;47.068;15.426;2023-11-19T11:05:50;6.57;;;4.60;;
83663;SDS011;73634;47.068;15.426;2023-11-19T11:08:16;6.22;;;4.72;;
83663;SDS011;73634;47.068;15.426;2023-11-19T11:10:43;7.30;;;4.70;;
83663;SDS011;73634;47.068;15.426;2023-11-19T11:13:11;6.97;;;4.57;;
83663;SDS011;73634;47.068;15.426;2023-11-19T11:18:16;7.47;;;4.43;;
83663;SDS011;73634;47.068;15.426;2023-11-19T11:20:46;7.85;;;4.70;;
83663;SDS011;73634;47.068;15.426;2023-11-19T11:28:56;7.63;;;4.72;;
83663;SDS011;73634;47.068;15.426;2023-11-19T11:39:21;6.60;;;4.65;;
83663;SDS011;73634;47.068;15.426;2023-11-19T11:43:43;8.25;;;5.43;;
83663;SDS011;73634;47.068;15.426;2023-11-19T11:46:28;7.18;;;6.05;;
83663;SDS011;73634;47.068;15.426;2023-11-19T11:49:01;8.05;;;5.50;;
83663;SDS011;73634;47.068;15.426;2023-11-19T11:54:08;6.38;;;4.35;;
83663;SDS011;73634;47.068;15.426;2023-11-19T11:56:37;7.50;;;5.82;;
83663;SDS011;73634;47.068;15.426;2023-11-19T11:59:07;8.63;;;4.50;;
83663;SDS011;73634;47.068;15.426;2023-11-19T12:03:58;6.87;;;4.93;;
83663;SDS011;73634;47.068;15.426;2023-11-19T12:07:54;11.80;;;7.38;;
83663;SDS011;73634;47.068;15.426;2023-11-19T12:10:26;8.57;;;4.95;;
83663;SDS011;73634;47.068;15.426;2023-11-19T12:13:01;8.82;;;5.05;;
83663;SDS011;73634;47.068;15.426;2023-11-19T12:15:27;6.55;;;4.65;;
83663;SDS011;73634;47.068;15.426;2023-11-19T12:17:56;5.78;;;4.40;;
83663;SDS011;73634;47.068;15.426;2023-11-19T12:20:22;7.15;;;5.72;;
83663;SDS011;73634;47.068;15.426;2023-11-19T12:22:48;6.95;;;4.90;;
83663;SDS011;73634;47.068;15.426;2023-11-19T12:25:15;6.70;;;5.00;;
83663;SDS011;73634;47.068;15.426;2023-11-19T12:30:09;8.10;;;4.28;;
83663;SDS011;73634;47.068;15.426;2023-11-19T12:32:38;6.88;;;4.65;;
83663;SDS011;73634;47.068;15.426;2023-11-19T12:35:04;6.60;;;4.30;;
83663;SDS011;73634;47.068;15.426;2023-11-19T12:37:30;7.13;;;4.53;;
83663;SDS011;73634;47.068;15.426;2023-11-19T12:39:56;7.75;;;4.72;;
83663;SDS011;73634;47.068;15.426;2023-11-19T12:42:44;7.07;;;4.20;;
83663;SDS011;73634;47.068;15.426;2023-11-19T12:45:09;7.57;;;4.97;;
83663;SDS011;73634;47.068;15.426;2023-11-19T12:47:41;9.13;;;5.40;;
83663;SDS011;73634;47.068;15.426;2023-11-19T12:52:55;6.72;;;4.00;;
83663;SDS011;73634;47.068;15.426;2023-11-19T12:55:29;6.35;;;4.05;;
83663;SDS011;73634;47.068;15.426;2023-11-19T12:57:55;7.22;;;4.43;;
83663;SDS011;73634;47.068;15.426;2023-11-19T13:00:23;6.57;;;4.30;;
83663;SDS011;73634;47.068;15.426;2023-11-19T13:02:56;7.07;;;4.28;;
83663;SDS011;73634;47.068;15.426;2023-11-19T13:05:32;6.80;;;3.80;;
83663;SDS011;73634;47.068;15.426;2023-11-19T13:07:59;6.05;;;3.45;;
83663;SDS011;73634;47.068;15.426;2023-11-19T13:10:26;9.88;;;5.40;;
83663;SDS011;73634;47.068;15.426;2023-11-19T13:13:07;8.63;;;4.40;;
83663;SDS011;73634;47.068;15.426;2023-11-19T13:17:30;6.82;;;2.90;;
83663;SDS011;73634;47.068;15.426;2023-11-19T13:19:56;5.57;;;3.13;;
83663;SDS011;73634;47.068;15.426;2023-11-19T13:22:22;7.25;;;4.15;;
83663;SDS011;73634;47.068;15.426;2023-11-19T13:24:47;7.85;;;3.70;;
83663;SDS011;73634;47.068;15.426;2023-11-19T13:27:13;7.43;;;4.05;;
83663;SDS011;73634;47.068;15.426;2023-11-19T13:29:38;5.75;;;2.80;;
83663;SDS011;73634;47.068;15.426;2023-11-19T13:32:04;6.78;;;3.30;;
83663;SDS011;73634;47.068;15.426;2023-11-19T13:34:30;4.82;;;2.58;;
83663;SDS011;73634;47.068;15.426;2023-11-19T13:36:56;4.82;;;2.42;;
83663;SDS011;73634;47.068;15.426;2023-11-19T13:41:57;5.10;;;2.15;;
83663;SDS011;73634;47.068;15.426;2023-11-19T13:44:22;6.45;;;2.85;;
83663;SDS011;73634;47.068;15.426;2023-11-19T13:46:48;5.43;;;3.15;;
83663;SDS011;73634;47.068;15.426;2023-11-19T13:49:13;5.93;;;3.33;;
83663;SDS011;73634;47.068;15.426;2023-11-19T13:51:39;5.70;;;3.13;;
83663;SDS011;73634;47.068;15.426;2023-11-19T13:54:04;6.25;;;3.17;;
83663;SDS011;73634;47.068;15.426;2023-11-19T13:56:29;6.65;;;3.58;;
83663;SDS011;73634;47.068;15.426;2023-11-19T13:58:55;6.63;;;3.60;;
83663;SDS011;73634;47.068;15.426;2023-11-19T14:01:20;8.18;;;3.55;;
83663;SDS011;73634;47.068;15.426;2023-11-19T14:05:26;8.73;;;4.05;;
83663;SDS011;73634;47.068;15.426;2023-11-19T14:07:52;5.88;;;3.08;;
83663;SDS011;73634;47.068;15.426;2023-11-19T14:10:18;6.15;;;3.50;;
83663;SDS011;73634;47.068;15.426;2023-11-19T14:12:44;6.85;;;3.70;;
83663;SDS011;73634;47.068;15.426;2023-11-19T14:15:10;7.50;;;3.28;;
83663;SDS011;73634;47.068;15.426;2023-11-19T14:17:37;7.07;;;3.38;;
83663;SDS011;73634;47.068;15.426;2023-11-19T14:20:04;6.55;;;3.67;;
83663;SDS011;73634;47.068;15.426;2023-11-19T14:22:41;6.88;;;4.10;;
83663;SDS011;73634;47.068;15.426;2023-11-19T14:25:08;8.07;;;3.80;;
83663;SDS011;73634;47.068;15.426;2023-11-19T14:29:24;6.13;;;2.88;;
83663;SDS011;73634;47.068;15.426;2023-11-19T14:31:56;5.82;;;3.50;;
83663;SDS011;73634;47.068;15.426;2023-11-19T14:34:23;5.95;;;3.22;;
83663;SDS011;73634;47.068;15.426;2023-11-19T14:36:49;6.82;;;3.20;;
83663;SDS011;73634;47.068;15.426;2023-11-19T14:39:15;5.72;;;3.00;;
83663;SDS011;73634;47.068;15.426;2023-11-19T14:41:42;6.45;;;2.85;;
83663;SDS011;73634;47.068;15.426;2023-11-19T14:44:08;6.95;;;2.90;;
83663;SDS011;73634;47.068;15.426;2023-11-19T14:46:34;6.22;;;3.13;;
83663;SDS011;73634;47.068;15.426;2023-11-19T14:49:00;6.88;;;3.28;;
83663;SDS011;73634;47.068;15.426;2023-11-19T14:51:25;6.55;;;3.15;;
83663;SDS011;73634;47.068;15.426;2023-11-19T14:55:54;8.00;;;3.08;;
83663;SDS011;73634;47.068;15.426;2023-11-19T14:58:20;6.95;;;3.17;;
83663;SDS011;73634;47.068;15.426;2023-11-19T15:00:45;5.93;;;2.85;;
83663;SDS011;73634;47.068;15.426;2023-11-19T15:03:11;6.47;;;2.95;;
83663;SDS011;73634;47.068;15.426;2023-11-19T15:05:37;7.40;;;3.25;;
83663;SDS011;73634;47.068;15.426;2023-11-19T15:08:02;7.50;;;3.05;;
83663;SDS011;73634;47.068;15.426;2023-11-19T15:10:28;7.05;;;2.70;;
83663;SDS011;73634;47.068;15.426;2023-11-19T15:12:53;7.38;;;3.38;;
83663;SDS011;73634;47.068;15.426;2023-11-19T15:15:19;6.30;;;2.55;;
83663;SDS011;73634;47.068;15.426;2023-11-19T15:20:17;6.28;;;3.30;;
83663;SDS011;73634;47.068;15.426;2023-11-19T15:22:43;5.97;;;3.20;;
83663;SDS011;73634;47.068;15.426;2023-11-19T15:25:08;7.82;;;3.83;;
83663;SDS011;73634;47.068;15.426;2023-11-19T15:27:35;6.30;;;2.53;;
83663;SDS011;73634;47.068;15.426;2023-11-19T15:30:01;18.25;;;7.47;;
83663;SDS011;73634;47.068;15.426;2023-11-19T15:32:28;10.75;;;5.75;;
83663;SDS011;73634;47.068;15.426;2023-11-19T15:34:56;9.25;;;4.10;;
83663;SDS011;73634;47.068;15.426;2023-11-19T15:37:22;8.30;;;3.45;;
83663;SDS011;73634;47.068;15.426;2023-11-19T15:39:47;8.27;;;3.80;;
83663;SDS011;73634;47.068;15.426;2023-11-19T15:44:52;9.13;;;4.72;;
83663;SDS011;73634;47.068;15.426;2023-11-19T15:47:18;10.75;;;5.07;;
83663;SDS011;73634;47.068;15.426;2023-11-19T15:49:43;11.32;;;4.45;;
83663;SDS011;73634;47.068;15.426;2023-11-19T15:52:10;11.07;;;5.60;;
83663;SDS011;73634;47.068;15.426;2023-11-19T15:54:35;8.82;;;4.28;;
83663;SDS011;73634;47.068;15.426;2023-11-19T15:57:02;33.53;;;14.00;;
83663;SDS011;73634;47.068;15.426;2023-11-19T15:59:27;13.55;;;6.75;;
83663;SDS011;73634;47.068;15.426;2023-11-19T16:01:53;11.35;;;4.72;;
83663;SDS011;73634;47.068;15.426;2023-11-19T16:04:18;11.45;;;4.90;;
83663;SDS011;73634;47.068;15.426;2023-11-19T16:09:49;12.18;;;5.20;;
83663;SDS011;73634;47.068;15.426;2023-11-19T16:12:14;18.65;;;8.02;;
83663;SDS011;73634;47.068;15.426;2023-11-19T16:14:40;16.60;;;6.78;;
83663;SDS011;73634;47.068;15.426;2023-11-19T16:17:06;14.27;;;7.38;;
83663;SDS011;73634;47.068;15.426;2023-11-19T16:19:31;15.93;;;6.65;;
83663;SDS011;73634;47.068;15.426;2023-11-19T16:21:59;19.67;;;6.88;;
83663;SDS011;73634;47.068;15.426;2023-11-19T16:24:34;13.48;;;6.03;;
83663;SDS011;73634;47.068;15.426;2023-11-19T16:27:00;12.93;;;5.30;;